createdAt,value
2018-08-17T00:01:03.770Z,19.10
2018-08-17T00:03:33.092Z,19.10
2018-08-17T00:06:02.383Z,19.00
2018-08-17T00:08:31.769Z,18.90
2018-08-17T00:11:01.093Z,18.90
2018-08-17T00:13:30.323Z,18.80
2018-08-17T00:15:59.623Z,18.70
2018-08-17T00:18:28.904Z,18.70
2018-08-17T00:20:58.191Z,18.70
2018-08-17T00:23:27.453Z,18.70
2018-08-17T00:25:56.770Z,18.60
2018-08-17T00:28:26.075Z,18.60
2018-08-17T00:30:55.354Z,18.50
2018-08-17T00:33:24.651Z,18.50
2018-08-17T00:35:53.970Z,18.40
2018-08-17T00:38:23.271Z,18.40
2018-08-17T00:40:52.461Z,18.30
2018-08-17T00:43:21.743Z,18.30
2018-08-17T00:45:50.979Z,18.20
2018-08-17T00:48:20.268Z,18.20
2018-08-17T00:50:49.487Z,18.10
2018-08-17T00:53:18.799Z,18.10
2018-08-17T00:55:48.056Z,18.00
2018-08-17T00:58:17.328Z,18.00
2018-08-17T01:00:46.651Z,17.90
2018-08-17T01:03:15.942Z,17.90
2018-08-17T01:05:45.172Z,17.90
2018-08-17T01:08:14.491Z,17.90
2018-08-17T01:10:43.775Z,17.80
2018-08-17T01:13:14.571Z,17.80
2018-08-17T01:15:43.879Z,17.70
2018-08-17T01:18:13.781Z,17.70
2018-08-17T01:20:43.010Z,17.70
2018-08-17T01:23:12.243Z,17.60
2018-08-17T01:25:41.467Z,17.60
2018-08-17T01:28:10.944Z,17.50
2018-08-17T01:30:40.239Z,17.50
2018-08-17T01:33:09.551Z,17.40
2018-08-17T01:35:38.799Z,17.40
2018-08-17T01:38:08.108Z,17.30
2018-08-17T01:40:37.463Z,17.30
2018-08-17T01:43:07.390Z,17.30
2018-08-17T01:45:36.623Z,17.20
2018-08-17T01:48:06.156Z,17.20
2018-08-17T01:50:35.404Z,17.10
2018-08-17T01:53:04.804Z,17.00
2018-08-17T01:55:34.139Z,17.00
2018-08-17T01:58:03.508Z,17.00
2018-08-17T02:00:32.750Z,16.90
2018-08-17T02:03:02.025Z,16.90
2018-08-17T02:05:31.255Z,16.90
2018-08-17T02:08:00.499Z,16.80
2018-08-17T02:10:29.710Z,16.80
2018-08-17T02:12:59.080Z,16.70
2018-08-17T02:15:28.300Z,16.70
2018-08-17T02:17:58.485Z,16.70
2018-08-17T02:20:27.733Z,16.60
2018-08-17T02:22:57.024Z,16.60
2018-08-17T02:25:26.303Z,16.60
2018-08-17T02:27:55.575Z,16.50
2018-08-17T02:30:24.831Z,16.50
2018-08-17T02:32:54.051Z,16.50
2018-08-17T02:35:23.322Z,16.40
2018-08-17T02:37:52.569Z,16.40
2018-08-17T02:40:21.959Z,16.40
2018-08-17T02:42:51.213Z,16.40
2018-08-17T02:45:20.492Z,16.30
2018-08-17T02:47:49.719Z,16.30
2018-08-17T02:50:19.097Z,16.30
2018-08-17T02:52:48.360Z,16.30
2018-08-17T02:55:17.655Z,16.20
2018-08-17T02:57:46.857Z,16.20
2018-08-17T03:00:16.147Z,16.20
2018-08-17T03:02:45.327Z,16.20
2018-08-17T03:05:14.608Z,16.10
2018-08-17T03:07:43.973Z,16.10
2018-08-17T03:10:13.258Z,16.10
2018-08-17T03:12:42.499Z,16.00
2018-08-17T03:15:11.887Z,16.00
2018-08-17T03:17:41.089Z,16.00
2018-08-17T03:20:10.353Z,16.00
2018-08-17T03:22:39.616Z,16.00
2018-08-17T03:25:09.011Z,15.90
2018-08-17T03:27:38.294Z,15.90
2018-08-17T03:30:07.663Z,15.90
2018-08-17T03:32:36.936Z,15.90
2018-08-17T03:35:06.571Z,15.90
2018-08-17T03:37:35.795Z,15.80
2018-08-17T03:40:05.097Z,15.80
2018-08-17T03:42:34.311Z,15.70
2018-08-17T03:45:03.616Z,15.70
2018-08-17T03:47:32.854Z,15.70
2018-08-17T03:50:02.131Z,15.60
2018-08-17T03:52:31.379Z,15.60
2018-08-17T03:55:00.655Z,15.60
2018-08-17T03:57:29.935Z,15.60
2018-08-17T03:59:59.261Z,15.70
2018-08-17T04:02:28.529Z,15.70
2018-08-17T04:04:57.984Z,15.60
2018-08-17T04:07:27.133Z,15.60
2018-08-17T04:09:56.388Z,15.60
2018-08-17T04:12:25.575Z,15.50
2018-08-17T04:14:54.812Z,15.50
2018-08-17T04:17:24.068Z,15.50
2018-08-17T04:19:53.380Z,15.40
2018-08-17T04:22:22.716Z,15.40
2018-08-17T04:24:51.927Z,15.40
2018-08-17T04:27:21.205Z,15.40
2018-08-17T04:29:50.554Z,15.30
2018-08-17T04:32:19.822Z,15.40
2018-08-17T04:34:49.059Z,15.30
2018-08-17T04:37:18.312Z,15.40
2018-08-17T04:39:47.574Z,15.30
2018-08-17T04:42:16.884Z,15.30
2018-08-17T04:44:46.160Z,15.30
2018-08-17T04:47:15.394Z,15.30
2018-08-17T04:49:44.599Z,15.30
2018-08-17T04:52:13.850Z,15.30
2018-08-17T04:54:43.185Z,15.40
2018-08-17T04:57:12.436Z,15.30
2018-08-17T04:59:41.727Z,15.30
2018-08-17T05:02:10.989Z,15.30
2018-08-17T05:04:40.289Z,15.30
2018-08-17T05:07:10.582Z,15.30
2018-08-17T05:09:39.830Z,15.30
2018-08-17T05:12:09.479Z,15.30
2018-08-17T05:14:39.003Z,15.30
2018-08-17T05:17:08.267Z,15.30
2018-08-17T05:19:37.480Z,15.30
2018-08-17T05:22:06.811Z,15.30
2018-08-17T05:24:36.019Z,15.40
2018-08-17T05:27:06.846Z,15.40
2018-08-17T05:29:36.100Z,15.40
2018-08-17T05:32:05.352Z,15.50
2018-08-17T05:34:34.551Z,15.50
2018-08-17T05:37:04.221Z,15.60
2018-08-17T05:39:33.583Z,15.70
2018-08-17T05:42:02.979Z,15.80
2018-08-17T05:44:32.271Z,15.90
2018-08-17T05:47:01.615Z,16.00
2018-08-17T05:49:30.809Z,16.10
2018-08-17T05:52:00.103Z,16.20
2018-08-17T05:54:29.367Z,16.30
2018-08-17T05:56:58.684Z,16.40
2018-08-17T05:59:27.923Z,16.50
2018-08-17T06:01:57.271Z,16.60
2018-08-17T06:04:26.522Z,16.70
2018-08-17T06:06:55.865Z,16.80
2018-08-17T06:09:25.092Z,16.90
2018-08-17T06:11:54.439Z,17.10
2018-08-17T06:14:23.704Z,17.20
2018-08-17T06:16:52.968Z,17.40
2018-08-17T06:19:23.250Z,17.50
2018-08-17T06:21:52.447Z,17.70
2018-08-17T06:24:21.675Z,17.80
2018-08-17T06:26:51.074Z,18.00
2018-08-17T06:29:20.378Z,18.10
2018-08-17T06:31:49.767Z,18.20
2018-08-17T06:34:19.063Z,18.40
2018-08-17T06:36:48.376Z,18.50
2018-08-17T06:39:17.586Z,18.70
2018-08-17T06:41:46.867Z,18.80
2018-08-17T06:44:16.066Z,19.00
2018-08-17T06:46:45.489Z,19.10
2018-08-17T06:49:14.729Z,19.30
2018-08-17T06:51:44.043Z,19.40
2018-08-17T06:54:13.221Z,19.50
2018-08-17T06:56:42.500Z,19.70
2018-08-17T06:59:11.717Z,19.80
2018-08-17T07:01:41.060Z,19.90
2018-08-17T07:04:10.323Z,20.00
2018-08-17T07:06:39.693Z,20.20
2018-08-17T07:09:10.183Z,20.30
2018-08-17T07:11:40.223Z,20.50
2018-08-17T07:14:10.001Z,20.60
2018-08-17T07:16:39.741Z,20.80
2018-08-17T07:19:08.991Z,20.90
2018-08-17T07:21:38.355Z,21.10
2018-08-17T07:24:07.652Z,21.20
2018-08-17T07:26:36.967Z,21.30
2018-08-17T07:29:06.259Z,21.50
2018-08-17T07:31:35.634Z,21.60
2018-08-17T07:34:04.888Z,21.70
2018-08-17T07:36:34.129Z,21.80
2018-08-17T07:39:03.641Z,22.00
2018-08-17T07:41:32.958Z,22.10
2018-08-17T07:44:02.339Z,22.20
2018-08-17T07:46:31.599Z,22.30
2018-08-17T07:49:00.825Z,22.40
2018-08-17T07:51:30.103Z,22.60
2018-08-17T07:53:59.343Z,22.70
2018-08-17T07:56:28.567Z,22.80
2018-08-17T07:58:57.819Z,23.00
2018-08-17T08:01:27.104Z,23.10
2018-08-17T08:03:56.416Z,23.30
2018-08-17T08:06:25.716Z,23.40
2018-08-17T08:08:54.991Z,23.60
2018-08-17T08:11:24.222Z,23.80
2018-08-17T08:13:53.481Z,23.90
2018-08-17T08:16:22.811Z,24.10
2018-08-17T08:18:52.137Z,24.20
2018-08-17T08:21:21.367Z,24.40
2018-08-17T08:23:50.672Z,24.50
2018-08-17T08:26:20.040Z,24.60
2018-08-17T08:28:49.423Z,24.80
2018-08-17T08:31:18.711Z,24.90
2018-08-17T08:33:48.013Z,25.00
2018-08-17T08:36:17.320Z,25.20
2018-08-17T08:38:46.552Z,25.40
2018-08-17T08:41:15.873Z,25.50
2018-08-17T08:43:45.118Z,25.70
2018-08-17T08:46:14.392Z,25.80
2018-08-17T08:48:43.628Z,25.90
2018-08-17T08:51:12.836Z,26.00
2018-08-17T08:53:42.073Z,26.10
2018-08-17T08:56:11.300Z,26.20
2018-08-17T08:58:40.674Z,26.40
2018-08-17T09:01:09.951Z,26.50
2018-08-17T09:03:39.274Z,26.60
2018-08-17T09:06:08.518Z,26.70
2018-08-17T09:08:37.796Z,26.80
2018-08-17T09:11:07.147Z,27.00
2018-08-17T09:13:36.468Z,27.10
2018-08-17T09:16:06.059Z,27.20
2018-08-17T09:18:35.708Z,27.20
2018-08-17T09:21:05.020Z,27.30
2018-08-17T09:23:34.294Z,27.40
2018-08-17T09:26:03.556Z,27.40
2018-08-17T09:28:32.752Z,27.50
2018-08-17T09:31:01.986Z,27.70
2018-08-17T09:33:31.333Z,27.70
2018-08-17T09:36:00.624Z,27.80
2018-08-17T09:38:29.912Z,27.90
2018-08-17T09:40:59.132Z,28.00
2018-08-17T09:43:28.423Z,28.00
2018-08-17T09:45:57.697Z,28.10
2018-08-17T09:48:27.008Z,28.20
2018-08-17T09:50:56.249Z,28.20
2018-08-17T09:53:25.507Z,28.20
2018-08-17T09:55:54.752Z,28.30
2018-08-17T09:58:24.139Z,28.40
2018-08-17T10:00:58.474Z,28.40
2018-08-17T10:03:32.835Z,28.30
2018-08-17T10:06:07.011Z,28.40
2018-08-17T10:08:41.387Z,28.40
2018-08-17T10:11:10.735Z,28.50
2018-08-17T10:13:39.970Z,28.50
2018-08-17T10:16:09.413Z,28.50
2018-08-17T10:18:43.707Z,28.50
2018-08-17T10:21:14.352Z,28.60
2018-08-17T10:23:43.456Z,28.60
2018-08-17T10:26:12.751Z,28.70
2018-08-17T10:28:41.898Z,28.70
2018-08-17T10:31:11.240Z,28.80
2018-08-17T10:33:40.424Z,28.70
2018-08-17T10:36:09.640Z,28.70
2018-08-17T10:38:38.878Z,28.70
2018-08-17T10:41:08.370Z,28.80
2018-08-17T10:43:37.546Z,28.90
2018-08-17T10:46:06.912Z,29.00
2018-08-17T10:48:36.217Z,29.10
2018-08-17T10:51:05.498Z,29.20
2018-08-17T10:53:39.603Z,29.30
2018-08-17T10:56:08.853Z,29.50
2018-08-17T10:58:38.100Z,29.60
2018-08-17T11:01:07.478Z,29.60
2018-08-17T11:03:36.749Z,29.70
2018-08-17T11:06:06.151Z,29.60
2018-08-17T11:08:35.410Z,29.60
2018-08-17T11:11:04.764Z,29.60
2018-08-17T11:13:34.101Z,29.60
2018-08-17T11:16:03.324Z,29.50
2018-08-17T11:18:32.764Z,29.70
2018-08-17T11:21:02.063Z,29.70
2018-08-17T11:23:31.356Z,29.80
2018-08-17T11:26:00.579Z,29.90
2018-08-17T11:28:30.016Z,30.00
2018-08-17T11:30:59.309Z,30.10
2018-08-17T11:33:29.671Z,30.10
2018-08-17T11:35:59.047Z,30.10
2018-08-17T11:38:28.289Z,30.10
2018-08-17T11:40:57.598Z,30.00
2018-08-17T11:43:26.900Z,29.90
2018-08-17T11:45:56.223Z,29.90
2018-08-17T11:48:35.375Z,29.90
2018-08-17T11:51:05.155Z,29.90
2018-08-17T11:53:34.423Z,30.00
2018-08-17T11:56:03.729Z,30.00
2018-08-17T11:58:32.943Z,30.00
2018-08-17T12:01:06.073Z,30.10
2018-08-17T12:03:35.211Z,30.10
2018-08-17T12:06:04.544Z,30.20
2018-08-17T12:08:33.712Z,30.30
2018-08-17T12:11:07.312Z,30.40
2018-08-17T12:13:39.380Z,30.60
2018-08-17T12:16:11.967Z,30.70
2018-08-17T12:18:41.315Z,30.90
2018-08-17T12:21:10.651Z,31.00
2018-08-17T12:23:39.911Z,31.00
2018-08-17T12:26:09.224Z,31.00
2018-08-17T12:28:38.446Z,31.10
2018-08-17T12:31:07.672Z,31.30
2018-08-17T12:33:36.927Z,31.50
2018-08-17T12:36:06.142Z,31.60
2018-08-17T12:38:35.329Z,31.70
2018-08-17T12:41:04.635Z,31.80
2018-08-17T12:43:35.671Z,32.00
2018-08-17T12:46:04.910Z,32.20
2018-08-17T12:48:34.131Z,32.30
2018-08-17T12:51:07.465Z,32.40
2018-08-17T12:53:36.756Z,32.40
2018-08-17T12:56:05.975Z,32.40
2018-08-17T12:58:35.147Z,32.50
2018-08-17T13:01:04.430Z,32.60
2018-08-17T13:03:33.665Z,32.70
2018-08-17T13:06:02.830Z,32.90
2018-08-17T13:08:32.078Z,32.90
2018-08-17T13:11:01.302Z,32.90
2018-08-17T13:13:30.575Z,32.90
2018-08-17T13:16:04.645Z,32.80
2018-08-17T13:18:36.191Z,32.70
2018-08-17T13:21:05.487Z,32.70
2018-08-17T13:23:34.882Z,32.80
2018-08-17T13:26:04.175Z,32.90
2018-08-17T13:28:33.412Z,32.90
2018-08-17T13:31:02.652Z,32.90
2018-08-17T13:33:31.952Z,33.00
2018-08-17T13:36:01.411Z,32.90
2018-08-17T13:38:30.711Z,33.10
2018-08-17T13:40:59.992Z,33.10
2018-08-17T13:43:29.308Z,33.30
2018-08-17T13:45:58.526Z,33.40
2018-08-17T13:48:27.811Z,33.50
2018-08-17T13:50:57.133Z,33.60
2018-08-17T13:53:26.447Z,33.60
2018-08-17T13:55:55.724Z,33.50
2018-08-17T13:58:24.945Z,33.60
2018-08-17T14:00:54.275Z,33.70
2018-08-17T14:03:23.532Z,33.60
2018-08-17T14:05:52.698Z,33.50
2018-08-17T14:08:22.048Z,33.40
2018-08-17T14:10:51.305Z,33.40
2018-08-17T14:13:20.579Z,33.40
2018-08-17T14:15:49.915Z,33.50
2018-08-17T14:18:19.120Z,33.60
2018-08-17T14:20:48.367Z,33.70
2018-08-17T14:23:17.638Z,33.80
2018-08-17T14:25:46.915Z,33.80
2018-08-17T14:28:16.160Z,33.70
2018-08-17T14:30:45.384Z,33.60
2018-08-17T14:33:14.638Z,33.40
2018-08-17T14:35:43.851Z,33.30
2018-08-17T14:38:13.011Z,33.20
2018-08-17T14:40:42.237Z,33.10
2018-08-17T14:43:11.453Z,33.00
2018-08-17T14:45:40.740Z,32.90
2018-08-17T14:48:10.079Z,32.80
2018-08-17T14:50:39.348Z,32.70
2018-08-17T14:53:08.687Z,32.60
2018-08-17T14:55:37.892Z,32.60
2018-08-17T14:58:07.224Z,32.50
2018-08-17T15:00:36.510Z,32.40
2018-08-17T15:03:05.868Z,32.50
2018-08-17T15:05:35.365Z,32.50
2018-08-17T15:08:04.695Z,32.60
2018-08-17T15:10:33.966Z,32.60
2018-08-17T15:13:03.327Z,32.50
2018-08-17T15:15:32.608Z,32.40
2018-08-17T15:18:01.842Z,32.30
2018-08-17T15:20:31.111Z,32.20
2018-08-17T15:23:00.357Z,32.30
2018-08-17T15:25:29.587Z,32.30
2018-08-17T15:27:58.833Z,32.30
2018-08-17T15:30:28.079Z,32.30
2018-08-17T15:32:57.338Z,32.30
2018-08-17T15:35:26.616Z,32.40
2018-08-17T15:37:55.862Z,32.20
2018-08-17T15:40:25.231Z,32.20
2018-08-17T15:42:58.632Z,32.10
2018-08-17T15:45:27.948Z,32.10
2018-08-17T15:47:57.307Z,32.00
2018-08-17T15:50:26.602Z,32.00
2018-08-17T15:52:55.899Z,32.00
2018-08-17T15:55:25.158Z,32.00
2018-08-17T15:57:54.489Z,32.00
2018-08-17T16:00:23.837Z,31.90
2018-08-17T16:02:53.055Z,31.90
2018-08-17T16:05:22.378Z,31.90
2018-08-17T16:07:51.618Z,31.80
2018-08-17T16:10:20.972Z,31.80
2018-08-17T16:12:50.222Z,31.70
2018-08-17T16:15:19.570Z,31.60
2018-08-17T16:17:48.763Z,31.50
2018-08-17T16:20:18.079Z,31.40
2018-08-17T16:22:47.321Z,31.20
2018-08-17T16:25:16.567Z,31.10
2018-08-17T16:27:45.828Z,31.00
2018-08-17T16:30:16.029Z,30.90
2018-08-17T16:32:45.355Z,30.80
2018-08-17T16:35:14.874Z,30.60
2018-08-17T16:37:47.417Z,30.50
2018-08-17T16:40:16.996Z,30.30
2018-08-17T16:42:49.904Z,30.20
2018-08-17T16:45:19.232Z,30.10
2018-08-17T16:47:48.469Z,29.90
2018-08-17T16:50:17.715Z,29.80
2018-08-17T16:52:46.972Z,29.70
2018-08-17T16:55:16.272Z,29.60
2018-08-17T16:57:45.472Z,29.40
2018-08-17T17:00:14.861Z,29.40
2018-08-17T17:02:44.144Z,29.30
2018-08-17T17:05:13.427Z,29.20
2018-08-17T17:07:42.792Z,29.10
2018-08-17T17:10:12.030Z,29.00
2018-08-17T17:12:41.432Z,28.90
2018-08-17T17:15:16.422Z,28.70
2018-08-17T17:17:54.169Z,28.70
2018-08-17T17:20:23.420Z,28.60
2018-08-17T17:22:52.796Z,28.40
2018-08-17T17:25:22.060Z,28.40
2018-08-17T17:27:51.360Z,28.30
2018-08-17T17:30:20.671Z,28.20
2018-08-17T17:32:50.018Z,28.20
2018-08-17T17:35:19.313Z,28.10
2018-08-17T17:37:48.607Z,28.00
2018-08-17T17:40:17.914Z,27.90
2018-08-17T17:42:47.157Z,27.80
2018-08-17T17:45:16.429Z,27.70
2018-08-17T17:47:45.730Z,27.70
2018-08-17T17:50:14.997Z,27.60
2018-08-17T17:52:44.247Z,27.60
2018-08-17T17:55:13.462Z,27.50
2018-08-17T17:57:42.935Z,27.50
2018-08-17T18:00:12.239Z,27.50
2018-08-17T18:02:41.657Z,27.40
2018-08-17T18:05:10.955Z,27.30
2018-08-17T18:07:44.320Z,27.20
2018-08-17T18:10:13.624Z,27.10
2018-08-17T18:12:42.842Z,26.90
2018-08-17T18:15:12.805Z,26.80
2018-08-17T18:17:42.572Z,26.60
2018-08-17T18:20:13.289Z,26.50
2018-08-17T18:22:42.680Z,26.40
2018-08-17T18:25:16.795Z,26.30
2018-08-17T18:27:46.666Z,26.30
2018-08-17T18:30:15.967Z,26.20
2018-08-17T18:32:45.607Z,26.10
2018-08-17T18:35:15.019Z,26.00
2018-08-17T18:37:44.329Z,26.00
2018-08-17T18:40:13.619Z,25.90
2018-08-17T18:42:42.941Z,25.80
2018-08-17T18:45:12.307Z,25.80
2018-08-17T18:47:41.628Z,25.70
2018-08-17T18:50:10.948Z,25.60
2018-08-17T18:52:40.295Z,25.60
2018-08-17T18:55:09.616Z,25.60
2018-08-17T18:57:39.006Z,25.50
2018-08-17T19:00:10.833Z,25.50
2018-08-17T19:02:40.107Z,25.40
2018-08-17T19:05:09.852Z,25.40
2018-08-17T19:07:39.560Z,25.30
2018-08-17T19:10:09.884Z,25.20
2018-08-17T19:12:39.127Z,25.10
2018-08-17T19:15:11.803Z,25.10
2018-08-17T19:17:41.547Z,25.00
2018-08-17T19:20:13.179Z,24.90
2018-08-17T19:22:44.263Z,24.90
2018-08-17T19:25:14.867Z,24.80
2018-08-17T19:27:44.506Z,24.70
2018-08-17T19:30:24.170Z,24.60
2018-08-17T19:32:55.655Z,24.60
2018-08-17T19:35:24.975Z,24.50
2018-08-17T19:37:54.338Z,24.40
2018-08-17T19:40:23.919Z,24.30
2018-08-17T19:42:53.186Z,24.30
2018-08-17T19:45:22.471Z,24.20
2018-08-17T19:47:51.722Z,24.10
2018-08-17T19:50:20.995Z,24.10
2018-08-17T19:52:50.198Z,24.00
2018-08-17T19:55:19.447Z,24.00
2018-08-17T19:57:48.649Z,24.00
2018-08-17T20:00:17.924Z,23.90
2018-08-17T20:02:47.215Z,23.90
2018-08-17T20:05:16.540Z,23.80
2018-08-17T20:07:45.784Z,23.80
2018-08-17T20:10:15.239Z,23.80
2018-08-17T20:12:44.559Z,23.80
2018-08-17T20:15:13.980Z,23.70
2018-08-17T20:17:48.728Z,23.70
2018-08-17T20:20:18.143Z,23.60
2018-08-17T20:22:47.472Z,23.60
2018-08-17T20:25:17.987Z,23.60
2018-08-17T20:27:47.594Z,23.50
2018-08-17T20:30:23.226Z,23.50
2018-08-17T20:32:52.524Z,23.40
2018-08-17T20:35:21.852Z,23.40
2018-08-17T20:37:53.747Z,23.40
2018-08-17T20:40:23.052Z,23.30
2018-08-17T20:42:52.329Z,23.30
2018-08-17T20:45:24.562Z,23.20
2018-08-17T20:47:54.091Z,23.10
2018-08-17T20:50:23.455Z,23.10
2018-08-17T20:52:57.783Z,23.00
2018-08-17T20:55:27.177Z,23.00
2018-08-17T20:57:57.374Z,23.00
2018-08-17T21:00:28.008Z,22.90
2018-08-17T21:02:57.401Z,22.90
2018-08-17T21:05:26.737Z,22.90
2018-08-17T21:07:55.883Z,22.90
2018-08-17T21:10:25.157Z,22.90
2018-08-17T21:12:54.406Z,22.90
2018-08-17T21:15:23.747Z,22.90
2018-08-17T21:17:53.019Z,22.80
2018-08-17T21:20:22.214Z,22.80
2018-08-17T21:22:51.446Z,22.80
2018-08-17T21:25:20.718Z,22.80
2018-08-17T21:27:50.027Z,22.80
2018-08-17T21:30:19.303Z,22.80
2018-08-17T21:32:48.570Z,22.80
2018-08-17T21:35:17.830Z,22.70
2018-08-17T21:37:47.092Z,22.70
2018-08-17T21:40:32.759Z,22.70
2018-08-17T21:43:02.419Z,22.70
2018-08-17T21:45:31.671Z,22.70
2018-08-17T21:48:00.990Z,22.70
2018-08-17T21:50:30.299Z,22.60
2018-08-17T21:52:59.583Z,22.60
2018-08-17T21:55:28.891Z,22.60
2018-08-17T21:57:58.173Z,22.60
2018-08-17T22:00:29.723Z,22.50
2018-08-17T22:02:59.310Z,22.50
2018-08-17T22:05:30.623Z,22.50
2018-08-17T22:08:00.470Z,22.50
2018-08-17T22:10:30.308Z,22.40
2018-08-17T22:12:59.592Z,22.40
2018-08-17T22:15:30.629Z,22.30
2018-08-17T22:18:00.005Z,22.20
2018-08-17T22:20:29.258Z,22.20
2018-08-17T22:22:59.732Z,22.20
2018-08-17T22:25:29.092Z,22.10
2018-08-17T22:27:58.370Z,22.10
2018-08-17T22:30:27.915Z,22.00
2018-08-17T22:32:57.220Z,22.00
2018-08-17T22:35:26.651Z,21.90
2018-08-17T22:37:55.870Z,21.90
2018-08-17T22:40:25.131Z,21.80
2018-08-17T22:42:54.451Z,21.80
2018-08-17T22:45:23.747Z,21.80
2018-08-17T22:47:53.079Z,21.70
2018-08-17T22:50:22.404Z,21.70
2018-08-17T22:52:51.736Z,21.70
2018-08-17T22:55:21.085Z,21.60
2018-08-17T22:57:50.427Z,21.50
2018-08-17T23:00:23.299Z,21.60
2018-08-17T23:02:53.745Z,21.50
2018-08-17T23:05:24.420Z,21.50
2018-08-17T23:07:53.684Z,21.50
2018-08-17T23:10:24.180Z,21.50
2018-08-17T23:12:54.136Z,21.50
2018-08-17T23:15:23.492Z,21.40
2018-08-17T23:17:56.727Z,21.50
2018-08-17T23:20:31.047Z,21.40
2018-08-17T23:23:01.531Z,21.30
2018-08-17T23:25:31.123Z,21.30
2018-08-17T23:28:00.448Z,21.30
2018-08-17T23:30:29.745Z,21.20
2018-08-17T23:32:59.050Z,21.20
2018-08-17T23:35:28.313Z,21.20
2018-08-17T23:37:57.654Z,21.10
2018-08-17T23:40:26.982Z,21.10
2018-08-17T23:42:56.341Z,21.10
2018-08-17T23:45:25.554Z,21.00
2018-08-17T23:47:54.830Z,21.00
2018-08-17T23:50:24.157Z,20.90
2018-08-17T23:52:53.463Z,20.90
2018-08-17T23:55:22.805Z,20.80
2018-08-17T23:57:52.119Z,20.90
